^^
Saratoga-Weather Station Historical Data
Daily Summary for October 02, 2022 Units:  Both    English   Metric
Daily Weekly Monthly Yearly Custom
  High: Low: Average:
Temperature: 55.2 °F /  12.9 °C 54.5 °F /  12.5 °C 55 °F /  12.8 °C
Dew Point: 53.2 °F /  11.8 °C 52.3 °F /  11.3 °C 52.9 °F /  11.6 °C
Humidity: 94% 91% 93%
Wind Speed: 6mph /  9.7km/h - 1.9mph /  3km/h
Wind Gust: 9mph /  14.5km/h - -
Wind- - WSW
Pressure: 30.1 in /  1018.3 hPa 30 in /  1016.9 hPa -
Precipitation: 0 in /  0.0 mm    
Historical Graphs
 
 
Tabular Data for October 02, 2022
Time Temperature Dew Point Pressure Wind Wind Speed Wind Gust Humidity Rainfall Rate (Hourly) solar
00:01 55 °F /  12.8 °C 53.1 °F /  11.7 °C 30in /  1016.9hPa West 0.9mph /  1.4km/h 4mph /  6.4km/h 93% 0.04in /  1.0mm 0 W/m2
00:06 55 °F /  12.8 °C 53.1 °F /  11.7 °C 30in /  1016.9hPa West 0.9mph /  1.4km/h 3mph /  4.8km/h 93% 0.04in /  1.0mm 0 W/m2
00:11 55 °F /  12.8 °C 53.1 °F /  11.7 °C 30in /  1017.3hPa NNW 0.9mph /  1.4km/h 4mph /  6.4km/h 93% 0.03in /  0.8mm 0 W/m2
00:16 55 °F /  12.8 °C 53.1 °F /  11.7 °C 30in /  1017.3hPa Calm   2mph /  3.2km/h 93% 0.02in /  0.5mm 0 W/m2
00:21 54.9 °F /  12.7 °C 52.9 °F /  11.6 °C 30in /  1017.3hPa NW 2.9mph /  4.7km/h 4mph /  6.4km/h 93% 0.01in /  0.2mm 0 W/m2
00:26 54.7 °F /  12.6 °C 52.7 °F /  11.5 °C 30in /  1017.3hPa Calm     93% 0in /  0.0mm 0 W/m2
00:31 54.5 °F /  12.5 °C 52.5 °F /  11.4 °C 30in /  1017.3hPa WNW 4mph /  6.4km/h 4mph /  6.4km/h 93% 0in /  0.0mm 0 W/m2
00:36 54.5 °F /  12.5 °C 52.5 °F /  11.4 °C 30in /  1017.3hPa Calm   2mph /  3.2km/h 93% 0in /  0.0mm 0 W/m2
00:41 54.5 °F /  12.5 °C 52.9 °F /  11.6 °C 30.1in /  1017.6hPa West 2mph /  3.2km/h 4mph /  6.4km/h 94% 0in /  0.0mm 0 W/m2
00:46 54.7 °F /  12.6 °C 53.1 °F /  11.7 °C 30.1in /  1017.6hPa WSW 4mph /  6.4km/h 7mph /  11.3km/h 94% 0in /  0.0mm 0 W/m2
00:52 54.7 °F /  12.6 °C 53.1 °F /  11.7 °C 30.1in /  1017.6hPa NW 2mph /  3.2km/h 4mph /  6.4km/h 94% 0in /  0.0mm 0 W/m2
00:57 54.7 °F /  12.6 °C 53.1 °F /  11.7 °C 30.1in /  1017.6hPa West 4mph /  6.4km/h 7mph /  11.3km/h 94% 0in /  0.0mm 0 W/m2
01:02 54.9 °F /  12.7 °C 53.2 °F /  11.8 °C 30.1in /  1017.6hPa WSW 4.9mph /  7.9km/h 7mph /  11.3km/h 94% 0in /  0.0mm 0 W/m2
01:07 55 °F /  12.8 °C 53.1 °F /  11.7 °C 30.1in /  1017.6hPa WNW 0.9mph /  1.4km/h 6mph /  9.7km/h 93% 0in /  0.0mm 0 W/m2
01:12 55 °F /  12.8 °C 53.1 °F /  11.7 °C 30.1in /  1017.6hPa West 2.9mph /  4.7km/h 6mph /  9.7km/h 93% 0in /  0.0mm 0 W/m2
01:17 55.2 °F /  12.9 °C 53.2 °F /  11.8 °C 30.1in /  1018.0hPa SW 6mph /  9.7km/h 9mph /  14.5km/h 93% 0in /  0.0mm 0 W/m2
01:22 55.2 °F /  12.9 °C 53.2 °F /  11.8 °C 30.1in /  1018.0hPa West 0.9mph /  1.4km/h 8mph /  12.9km/h 93% 0in /  0.0mm 0 W/m2
01:27 55.2 °F /  12.9 °C 53.2 °F /  11.8 °C 30.1in /  1018.0hPa WNW 2.9mph /  4.7km/h 9mph /  14.5km/h 93% 0in /  0.0mm 0 W/m2
01:32 55.2 °F /  12.9 °C 53.2 °F /  11.8 °C 30.1in /  1018.0hPa WNW 2mph /  3.2km/h 4mph /  6.4km/h 93% 0in /  0.0mm 0 W/m2
01:37 55.2 °F /  12.9 °C 52.9 °F /  11.6 °C 30.1in /  1018.0hPa WSW 0.9mph /  1.4km/h 8mph /  12.9km/h 92% 0in /  0.0mm 0 W/m2
01:42 55.2 °F /  12.9 °C 52.9 °F /  11.6 °C 30.1in /  1018.0hPa West 4mph /  6.4km/h 9mph /  14.5km/h 92% 0in /  0.0mm 0 W/m2
01:47 55.2 °F /  12.9 °C 52.9 °F /  11.6 °C 30.1in /  1018.0hPa SSE 0.9mph /  1.4km/h 3mph /  4.8km/h 92% 0in /  0.0mm 0 W/m2
01:52 55.2 °F /  12.9 °C 52.9 °F /  11.6 °C 30.1in /  1018.0hPa WSW 0.9mph /  1.4km/h 6mph /  9.7km/h 92% 0in /  0.0mm 0 W/m2
01:57 55.2 °F /  12.9 °C 52.9 °F /  11.6 °C 30.1in /  1018.0hPa Calm   3mph /  4.8km/h 92% 0in /  0.0mm 0 W/m2
02:02 55.2 °F /  12.9 °C 52.9 °F /  11.6 °C 30.1in /  1018.0hPa SW 4mph /  6.4km/h 7mph /  11.3km/h 92% 0in /  0.0mm 0 W/m2
02:07 55.2 °F /  12.9 °C 52.9 °F /  11.6 °C 30.1in /  1018.3hPa NW 0.9mph /  1.4km/h 2mph /  3.2km/h 92% 0in /  0.0mm 0 W/m2
02:12 55.2 °F /  12.9 °C 52.9 °F /  11.6 °C 30.1in /  1018.0hPa WSW 0.9mph /  1.4km/h 2mph /  3.2km/h 92% 0in /  0.0mm 0 W/m2
02:17 55.2 °F /  12.9 °C 52.7 °F /  11.5 °C 30.1in /  1018.0hPa Calm   2mph /  3.2km/h 91% 0in /  0.0mm 0 W/m2
02:22 55 °F /  12.8 °C 52.7 °F /  11.5 °C 30.1in /  1018.3hPa West 2mph /  3.2km/h 3mph /  4.8km/h 92% 0in /  0.0mm 0 W/m2
02:27 55 °F /  12.8 °C 52.7 °F /  11.5 °C 30.1in /  1018.3hPa WSW 2mph /  3.2km/h 2mph /  3.2km/h 92% 0in /  0.0mm 0 W/m2
02:32 55 °F /  12.8 °C 52.7 °F /  11.5 °C 30.1in /  1018.3hPa SW 0.9mph /  1.4km/h 1mph /  1.6km/h 92% 0in /  0.0mm 0 W/m2
02:37 54.9 °F /  12.7 °C 52.5 °F /  11.4 °C 30.1in /  1018.3hPa NW 0.9mph /  1.4km/h 4mph /  6.4km/h 92% 0in /  0.0mm 0 W/m2
02:42 54.9 °F /  12.7 °C 52.5 °F /  11.4 °C 30.1in /  1018.3hPa WNW 0.9mph /  1.4km/h 4mph /  6.4km/h 92% 0in /  0.0mm 0 W/m2
02:47 54.9 °F /  12.7 °C 52.5 °F /  11.4 °C 30.1in /  1018.3hPa West 0.9mph /  1.4km/h 2mph /  3.2km/h 92% 0in /  0.0mm 0 W/m2
02:52 54.9 °F /  12.7 °C 52.5 °F /  11.4 °C 30.1in /  1018.3hPa Calm   2mph /  3.2km/h 92% 0in /  0.0mm 0 W/m2
02:57 54.9 °F /  12.7 °C 52.5 °F /  11.4 °C 30.1in /  1018.3hPa SSW 2.9mph /  4.7km/h 6mph /  9.7km/h 92% 0in /  0.0mm 0 W/m2
03:02 54.7 °F /  12.6 °C 52.3 °F /  11.3 °C 30.1in /  1018.3hPa WNW 2.9mph /  4.7km/h 3mph /  4.8km/h 92% 0in /  0.0mm 0 W/m2
03:07 54.7 °F /  12.6 °C 52.3 °F /  11.3 °C 30.1in /  1018.3hPa SSE 2mph /  3.2km/h 5mph /  8km/h 92% 0in /  0.0mm 0 W/m2
03:12 54.7 °F /  12.6 °C 52.3 °F /  11.3 °C 30.1in /  1018.3hPa ENE 2.9mph /  4.7km/h 3mph /  4.8km/h 92% 0in /  0.0mm 0 W/m2
Juneau County Weather
Compliments of Weather Underground - 2 mb